Date,TemperatureHighF,TemperatureAvgF,TemperatureLowF,DewpointHighF,DewpointAvgF,DewpointLowF,HumidityHigh,HumidityAvg,HumidityLow,PressureMaxIn,PressureMinIn,WindSpeedMaxMPH,WindSpeedAvgMPH,GustSpeedMaxMPH,PrecipitationSumIn
2013-1-1,29.9,26.0,19.3,28.1,22.4,13.7,93,86,76,29.95,29.85,8,1,11,0.00
2013-1-2,22.5,15.0,7.5,14.8,10.5,4.9,91,82,70,30.12,29.93,8,1,9,0.00
2013-1-3,29.2,18.3,4.3,21.4,12.9,1.5,91,80,61,30.10,30.01,13,2,17,0.00
2013-1-4,29.6,25.9,22.3,21.2,18.7,16.2,83,74,63,30.10,30.00,17,6,23,0.00
2013-1-5,35.2,27.8,20.3,25.3,20.9,15.2,83,76,64,30.24,29.98,8,2,11,0.01
2013-1-6,36.2,32.9,29.5,30.7,27.6,24.9,91,81,74,30.08,29.82,10,2,13,0.04
2013-1-7,34.4,28.7,23.7,27.3,24.3,20.7,92,84,69,30.31,30.08,9,2,12,0.01
2013-1-8,42.1,31.2,21.2,28.5,24.5,18.8,91,77,55,30.21,30.10,7,1,10,0.04
2013-1-9,45.6,38.3,31.6,38.3,30.9,25.5,87,75,65,30.33,30.05,10,3,20,0.05
2013-1-10,37.7,32.7,24.4,29.3,27.2,22.9,95,81,67,30.45,30.11,12,3,16,0.00
2013-1-11,54.3,44.6,37.4,50.6,39.9,27.7,96,84,65,30.11,29.75,9,3,14,0.30
2013-1-12,59.1,54.0,47.5,54.6,51.7,46.4,97,92,82,29.89,29.73,10,2,14,0.02
2013-1-13,64.8,59.8,41.7,56.9,54.8,39.5,94,84,73,29.76,29.58,16,3,24,0.11
2013-1-14,41.7,31.2,23.3,38.8,26.1,20.0,93,81,72,30.24,29.76,22,2,22,0.00
2013-1-15,31.0,26.2,19.9,22.7,20.8,17.5,92,80,69,30.26,29.94,5,0,11,0.00
2013-1-16,33.4,30.1,28.3,28.6,25.9,21.7,93,84,74,29.96,29.75,9,2,13,0.00
2013-1-17,33.9,31.2,27.1,28.3,25.9,18.6,86,81,70,30.05,29.86,18,2,22,0.00
2013-1-18,31.5,24.1,12.4,19.8,14.9,8.0,88,68,54,30.34,30.05,13,4,19,0.00
2013-1-19,50.2,40.9,30.9,27.0,23.3,19.8,64,50,33,30.06,29.62,13,5,25,0.00
2013-1-20,44.7,29.7,19.6,31.7,18.1,10.9,70,62,51,29.99,29.57,19,7,31,0.00
2013-1-21,20.6,16.2,7.2,15.9,10.2,0.9,89,77,69,29.97,29.79,17,4,21,0.00
2013-1-22,10.9,4.7,-2.5,2.2,-2.0,-5.9,88,74,55,30.18,29.95,15,4,19,0.00
2013-1-23,13.5,7.3,-0.5,7.7,1.8,-4.6,89,78,64,30.19,29.97,9,2,13,0.00
2013-1-24,21.8,12.2,4.2,11.0,4.6,-2.3,90,73,40,30.44,29.96,10,1,14,0.00
2013-1-25,15.9,12.5,8.6,13.2,8.0,3.5,89,82,72,30.40,29.91,9,2,14,0.00
2013-1-26,26.1,19.9,15.1,20.4,15.7,11.8,91,84,65,30.32,29.97,9,2,15,0.00
2013-1-27,29.0,20.4,5.9,20.0,14.1,3.0,91,77,63,30.41,30.16,10,2,12,0.00
2013-1-28,46.9,38.8,26.9,46.1,36.9,19.3,97,93,70,30.17,29.83,12,4,18,0.46
2013-1-29,58.8,52.7,46.8,54.3,50.1,46.0,97,91,77,29.90,29.55,11,3,16,0.12
2013-1-30,63.8,55.8,34.7,55.9,50.6,32.6,93,83,71,29.55,28.99,21,6,29,0.45
2013-1-31,35.1,24.3,17.3,32.8,18.7,11.9,93,79,68,29.71,29.10,25,9,32,0.01
2013-2-1,17.3,12.9,10.5,13.0,6.6,3.4,84,76,68,30.19,29.70,18,6,24,0.00
2013-2-2,22.1,15.7,8.0,18.9,11.6,3.2,91,84,74,30.18,29.85,11,2,14,0.00
2013-2-3,21.3,18.7,15.5,18.9,14.1,10.9,92,82,69,29.90,29.72,15,3,18,0.00
2013-2-4,25.0,19.2,13.6,20.4,15.4,9.2,92,85,79,29.93,29.74,8,2,17,0.00
2013-2-5,27.0,24.0,21.4,23.6,21.1,17.1,93,89,74,29.81,29.71,8,1,12,0.00
2013-2-6,31.0,24.2,15.0,23.9,17.1,9.1,91,75,51,30.19,29.81,9,2,14,0.05
2013-2-7,43.2,29.8,15.3,29.3,21.7,8.8,81,72,57,30.16,29.78,11,3,15,0.02
2013-2-8,36.3,29.7,23.6,34.5,26.6,19.9,93,88,81,30.05,29.63,15,5,27,0.15
2013-2-9,32.7,24.2,18.0,20.1,17.6,14.3,86,76,56,30.27,30.05,14,2,20,0.00
2013-2-10,43.9,32.5,17.5,32.7,21.2,13.2,85,65,43,30.20,29.75,9,3,16,0.01
2013-2-11,52.6,41.6,33.1,44.2,34.7,24.3,95,77,56,29.75,29.51,23,7,26,0.00
2013-2-12,38.0,30.3,23.7,26.9,23.6,21.1,91,76,63,29.92,29.75,15,4,19,0.00
2013-2-13,32.9,27.0,20.4,27.2,23.3,18.7,94,86,78,29.78,29.57,6,0,8,0.00
2013-2-14,38.9,31.5,22.6,34.8,28.8,20.6,93,90,79,29.78,29.70,12,3,20,0.01
2013-2-15,35.5,31.0,22.5,28.7,24.6,18.4,89,77,63,29.94,29.77,9,3,20,0.00
2013-2-16,27.7,22.3,15.0,19.2,15.3,9.2,92,76,49,29.92,29.82,7,1,12,0.00
2013-2-17,20.9,15.1,4.6,15.5,9.0,0.6,90,77,55,30.13,29.81,13,4,17,0.00
2013-2-18,42.7,23.6,4.7,30.6,13.0,1.2,90,65,50,30.15,29.69,13,6,16,0.00
2013-2-19,44.0,31.8,16.5,37.0,26.6,12.6,92,81,59,29.81,29.49,20,7,28,0.27
2013-2-20,19.8,17.2,14.8,14.0,11.3,8.6,85,78,65,30.09,29.81,16,6,22,0.00
2013-2-21,24.6,18.7,16.6,15.5,13.2,10.7,89,79,67,30.23,30.07,12,3,14,0.00
2013-2-22,34.7,28.2,17.7,33.2,24.7,13.4,96,87,73,30.17,29.83,17,5,23,0.01
2013-2-23,38.2,33.1,25.4,32.9,29.7,22.2,96,87,73,29.86,29.72,8,1,10,0.00
2013-2-24,30.0,27.5,24.4,24.7,22.5,18.7,91,81,70,30.00,29.73,11,3,14,0.00
2013-2-25,40.1,30.7,19.4,28.4,23.3,17.6,94,75,54,30.09,29.91,10,2,14,0.00
2013-2-26,37.1,33.2,29.6,33.6,27.6,22.0,93,80,65,29.93,29.40,23,10,30,0.92
2013-2-27,40.3,35.7,31.8,36.4,33.5,28.9,95,92,84,29.51,29.37,13,3,18,0.29
2013-2-28,33.0,31.2,28.8,30.7,28.7,26.6,94,90,85,29.70,29.44,12,3,15,0.00
2013-3-1,28.8,26.8,24.3,27.0,22.7,19.3,93,84,76,29.86,29.70,9,3,13,0.00
2013-3-2,26.9,24.3,22.1,21.6,20.0,17.6,90,84,71,29.84,29.80,9,3,14,0.00
2013-3-3,26.2,22.4,20.1,21.5,18.7,16.4,90,86,76,29.89,29.81,11,3,12,0.00
2013-3-4,34.3,25.5,17.7,22.0,18.4,14.2,86,75,57,29.99,29.89,11,2,16,0.00
2013-3-5,39.5,29.2,17.8,24.8,19.2,13.5,87,68,39,29.97,29.52,19,5,25,0.02
2013-3-6,42.3,34.4,30.0,31.6,28.7,24.2,95,81,61,29.99,29.52,18,4,23,0.07
2013-3-7,40.4,33.2,29.5,31.8,28.5,26.0,92,83,61,30.17,29.98,11,2,17,0.00
2013-3-8,34.6,29.6,22.9,29.0,25.2,20.9,93,84,75,30.29,30.17,8,2,14,0.00
2013-3-9,53.0,36.5,21.9,33.8,27.3,20.2,95,72,42,30.29,30.00,11,2,13,0.00
2013-3-10,68.8,54.5,43.0,39.0,33.3,27.2,57,46,31,30.00,29.75,10,3,16,0.00
2013-3-11,58.0,53.3,44.1,47.9,38.1,32.8,92,59,42,29.75,29.45,13,4,19,0.51
2013-3-12,44.1,35.6,31.9,41.1,30.7,26.6,91,82,77,29.83,29.57,12,4,17,0.06
2013-3-13,32.1,28.6,25.0,27.8,23.7,18.0,94,82,65,30.00,29.76,18,5,22,0.00
2013-3-14,36.3,27.8,20.2,21.7,19.6,16.1,85,72,49,30.09,29.99,15,4,19,0.00
2013-3-15,44.2,35.0,26.2,35.5,27.8,20.5,92,75,65,29.99,29.69,15,3,17,0.04
2013-3-16,36.1,31.8,27.3,34.7,30.2,24.5,95,94,89,29.84,29.50,8,2,13,0.11
2013-3-17,32.4,28.7,26.3,25.7,23.5,20.3,91,81,67,30.06,29.84,9,1,10,0.00
2013-3-18,42.0,32.5,27.3,41.2,29.5,20.5,97,89,74,30.03,29.51,15,6,22,0.05
2013-3-19,43.1,31.7,26.6,42.3,25.2,18.2,97,77,65,29.81,29.53,19,7,25,0.02
2013-3-20,32.5,27.2,20.9,21.3,18.6,16.8,89,70,54,29.81,29.72,16,5,20,0.00
2013-3-21,26.1,21.1,13.5,21.8,14.6,8.1,89,76,61,29.78,29.72,14,4,19,0.00
2013-3-22,33.1,24.7,22.9,22.2,19.3,17.7,88,80,63,29.88,29.77,14,6,17,0.00
2013-3-23,43.2,30.9,18.6,26.6,22.5,16.2,92,72,48,29.91,29.85,9,1,12,0.00
2013-3-24,36.8,30.8,24.7,26.1,22.4,20.5,85,72,57,29.88,29.36,17,5,23,0.00
2013-3-25,37.6,32.0,29.8,35.5,30.3,26.1,95,94,71,29.64,29.28,16,4,26,0.23
2013-3-26,37.3,33.1,30.0,32.2,29.8,28.1,94,88,77,29.93,29.64,11,2,18,0.01
2013-3-27,40.3,34.6,30.7,30.3,28.9,26.0,94,80,58,30.02,29.92,15,4,22,0.03
2013-3-28,42.2,36.2,32.6,31.1,28.8,27.1,84,75,62,30.12,29.99,10,3,13,0.00
2013-3-29,49.6,38.9,28.5,31.3,26.9,21.7,88,65,38,30.12,30.02,10,2,15,0.00
2013-3-30,54.6,39.7,24.9,28.5,23.3,19.4,81,55,28,30.10,29.85,9,1,12,0.00
2013-3-31,48.3,43.8,38.8,44.0,35.3,23.8,91,73,51,29.85,29.53,8,2,15,0.05
2013-4-1,45.3,37.2,30.2,41.3,25.2,11.3,91,64,33,29.87,29.52,15,5,23,0.01
2013-4-2,30.1,27.4,25.6,17.1,15.9,14.7,66,62,55,30.05,30.03,2,0,4,0.00
2013-4-3,36.8,29.3,21.0,20.2,15.5,11.5,80,57,38,30.28,30.05,15,2,22,0.00
2013-4-4,40.2,24.1,18.4,18.3,13.8,12.2,77,66,32,30.26,30.08,9,1,10,0.00
2013-4-5,51.0,38.3,27.3,32.4,22.9,15.8,73,55,37,30.05,29.78,17,3,17,0.00
2013-4-6,56.7,36.6,19.6,22.0,16.3,10.1,85,51,16,30.14,29.82,15,4,15,0.00
2013-4-7,70.2,57.6,44.3,44.6,36.4,15.6,77,47,24,29.83,29.68,19,5,28,0.00
2013-4-8,70.6,55.9,37.8,51.7,43.7,34.0,88,66,44,29.86,29.70,14,2,18,0.00
2013-4-9,78.8,65.5,48.5,56.6,51.4,42.5,82,62,43,29.91,29.69,12,3,17,0.00
2013-4-10,75.2,64.8,55.7,64.6,57.6,53.6,95,78,58,29.74,29.59,12,2,33,1.79
2013-4-11,61.6,52.6,45.7,57.5,50.8,44.6,97,94,84,29.71,29.39,16,3,21,0.50
2013-4-12,58.2,48.3,38.6,56.9,44.7,33.9,96,87,68,29.69,29.30,17,4,22,0.37
2013-4-13,44.5,40.4,33.5,35.4,33.4,29.4,86,76,67,29.88,29.68,12,4,21,0.00
2013-4-14,57.9,44.1,28.5,39.9,33.4,26.0,92,68,47,30.01,29.84,11,2,15,0.00
2013-4-15,67.5,58.1,49.2,50.7,45.2,36.9,71,62,53,29.90,29.80,13,3,18,0.00
2013-4-16,74.7,59.5,48.3,60.4,52.3,46.7,94,78,59,30.00,29.82,11,3,17,0.37
2013-4-17,65.9,55.1,46.3,52.7,45.9,41.7,96,74,46,30.09,29.93,10,2,16,0.00
2013-4-18,83.6,70.2,57.5,63.1,57.3,53.1,90,66,40,29.91,29.51,25,8,25,0.00
2013-4-19,71.8,55.5,37.8,59.2,45.5,30.2,91,70,53,29.67,29.24,19,7,26,0.26
2013-4-20,41.7,36.7,27.5,31.6,27.1,22.7,90,69,49,30.26,29.67,18,5,23,0.01
2013-4-21,49.8,36.7,22.7,29.6,24.3,20.0,92,64,36,30.46,30.26,13,2,19,0.00
2013-4-22,62.7,48.6,34.2,38.3,31.1,24.9,82,52,35,30.32,30.08,11,3,18,0.00
2013-4-23,70.8,55.2,37.7,41.5,36.1,28.0,78,51,31,30.08,29.75,9,3,15,0.00
2013-4-24,58.8,49.0,34.9,53.9,42.8,32.5,93,81,47,29.99,29.53,18,3,23,0.69
2013-4-25,53.6,40.7,30.1,40.0,33.5,28.8,95,78,45,30.20,29.99,13,2,28,0.03
2013-4-26,58.2,44.1,29.9,38.2,31.8,28.1,96,67,33,30.33,30.20,8,1,10,0.01
2013-4-27,72.1,55.2,38.0,41.4,34.1,29.9,74,48,24,30.24,29.95,8,2,13,0.00
2013-4-28,56.6,53.1,47.6,53.4,47.2,38.2,95,81,52,29.96,29.73,8,2,13,0.43
2013-4-29,64.0,56.0,51.4,57.0,53.2,49.7,95,90,76,29.83,29.73,8,1,10,0.11
2013-4-30,72.4,61.0,49.0,58.1,52.6,47.6,97,76,51,29.98,29.83,11,2,15,0.01
2013-5-1,75.5,63.6,51.1,56.9,51.0,42.1,90,66,43,30.10,29.97,11,3,16,0.00
2013-5-2,75.1,63.3,49.2,50.8,40.8,33.2,66,45,22,30.15,30.00,16,3,18,0.00
2013-5-3,74.6,62.7,50.6,46.2,41.1,36.2,66,47,29,30.04,29.93,15,5,23,0.00
2013-5-4,69.2,59.4,47.9,44.0,40.7,37.0,72,51,33,29.99,29.89,17,5,21,0.00
2013-5-5,72.5,59.8,47.4,42.2,36.0,23.9,75,45,18,29.94,29.82,21,6,23,0.00
2013-5-6,71.1,59.3,46.6,53.0,44.7,32.4,78,59,40,29.88,29.80,14,4,24,0.00
2013-5-7,69.7,61.5,54.9,55.6,52.8,50.7,86,74,54,29.85,29.77,17,5,20,0.00
2013-5-8,71.5,62.2,55.3,55.2,52.4,48.6,87,71,46,29.80,29.73,12,2,18,0.02
2013-5-9,77.4,63.0,52.3,57.5,50.0,39.5,96,68,27,29.80,29.73,8,1,15,0.00
2013-5-10,73.1,63.6,57.9,62.8,56.0,43.3,93,77,54,29.80,29.62,11,1,15,0.14
2013-5-11,60.0,51.1,45.5,58.4,49.2,42.9,96,93,81,29.68,29.57,13,4,23,0.10
2013-5-12,49.6,42.9,31.7,42.2,32.6,28.5,95,69,48,29.91,29.67,19,5,25,0.00
2013-5-13,39.4,33.1,29.6,30.2,28.5,27.1,92,84,63,29.92,29.90,3,0,9,0.00
2013-5-14,59.6,55.3,50.9,41.4,40.7,39.4,69,58,48,29.76,29.70,7,3,11,0.00
2013-5-15,82.8,66.9,50.3,63.3,53.4,40.7,82,64,40,29.70,29.55,16,3,22,0.01
2013-5-18,82.2,64.2,54.5,60.3,50.3,43.2,79,61,37,29.95,29.83,12,5,15,0.00
2013-5-19,79.2,68.7,58.3,65.9,61.2,56.3,94,78,60,29.89,29.76,10,2,12,0.00
2013-5-20,84.4,73.0,59.8,70.5,65.1,57.8,95,78,57,29.82,29.69,6,1,11,0.00
2013-5-21,85.8,74.8,65.7,70.5,66.1,63.3,96,76,48,29.74,29.60,8,1,14,0.00
2013-5-22,71.2,70.4,68.9,64.4,63.8,62.8,81,80,79,29.63,29.60,3,0,7,0.00
2013-5-23,72.7,64.0,43.4,63.7,59.3,40.7,94,85,62,29.77,29.55,18,4,18,0.23
2013-5-24,44.1,40.9,31.0,40.7,35.6,28.9,94,82,68,30.15,29.77,12,4,18,0.02
2013-5-25,59.1,44.8,28.2,40.5,33.7,27.0,96,69,39,30.20,30.10,11,2,17,0.00
2013-5-26,65.0,49.6,32.3,41.5,35.4,30.4,94,63,31,30.15,30.07,10,1,14,0.00
2013-5-27,57.5,51.3,38.8,48.9,41.7,33.7,85,71,51,30.11,29.92,12,2,13,0.02
2013-5-28,81.2,66.0,52.1,67.8,59.3,48.0,94,80,58,29.92,29.76,8,2,14,0.24
2013-5-29,84.2,74.5,65.6,66.5,61.8,58.6,78,66,48,29.87,29.79,10,2,18,0.00
2013-5-30,87.5,75.7,63.9,69.0,63.6,59.7,88,68,45,29.97,29.86,9,1,12,0.00
2013-5-31,87.3,75.9,65.5,67.8,63.9,61.5,92,68,46,29.89,29.75,10,1,18,0.06
2013-6-1,83.0,73.9,64.3,69.7,65.8,61.9,93,77,61,29.79,29.57,11,2,19,0.00
2013-6-2,74.6,68.9,63.1,66.3,61.5,56.3,95,78,59,29.70,29.55,16,2,25,0.63
2013-6-3,63.1,54.4,43.3,56.8,48.6,39.2,89,81,52,29.91,29.68,5,1,11,0.00
2013-6-4,70.0,56.1,38.8,53.1,45.1,37.1,95,69,47,30.00,29.91,5,1,11,0.00
2013-6-5,80.5,63.9,46.8,60.0,49.3,43.0,89,62,35,29.98,29.74,11,2,14,0.00
2013-6-6,67.2,63.3,56.5,65.0,60.9,51.4,96,92,71,29.75,29.58,5,0,12,1.07
2013-6-7,62.5,56.8,53.6,58.1,54.8,52.5,97,93,84,29.70,29.62,7,1,10,0.00
2013-6-8,70.7,60.9,54.7,57.8,54.3,52.8,95,81,59,29.88,29.70,6,1,10,0.00
2013-6-9,78.1,71.4,60.5,63.1,60.1,56.3,86,68,57,29.98,29.81,13,4,15,0.00
2013-6-10,71.3,67.2,61.3,68.9,64.2,59.3,96,90,77,29.81,29.57,9,1,14,0.29
2013-6-11,76.1,67.3,60.7,66.1,62.6,58.9,95,86,66,29.69,29.58,9,2,17,0.02
2013-6-12,78.8,69.5,62.6,71.3,65.4,60.8,95,87,66,29.72,29.50,8,0,10,0.00
2013-6-13,72.2,64.7,58.5,68.4,60.6,55.3,96,87,68,29.64,29.30,13,3,25,0.49
2013-6-14,71.8,61.0,52.1,60.7,55.9,49.6,96,84,64,29.90,29.64,9,1,11,0.00
2013-6-15,76.5,61.6,46.8,58.7,51.4,43.2,97,73,35,29.96,29.81,5,1,8,0.00
2013-6-16,75.2,66.9,61.2,67.9,62.5,55.9,95,86,73,29.83,29.69,10,2,15,0.28
2013-6-17,76.2,65.0,62.0,65.6,62.6,59.3,97,92,60,29.78,29.71,5,1,8,0.00
2013-6-18,77.0,68.9,56.5,65.8,59.8,50.1,91,73,63,29.81,29.68,9,2,12,0.00
2013-6-19,75.5,61.9,48.6,55.4,49.2,45.4,89,66,39,29.98,29.81,12,1,15,0.00
2013-6-20,79.5,61.2,49.2,58.3,51.7,46.7,92,73,38,30.05,29.98,2,0,4,0.00
2013-6-21,84.6,74.3,57.3,63.8,58.2,52.7,86,59,41,30.07,29.96,8,1,8,0.00
2013-6-22,88.0,76.0,62.5,69.5,64.0,57.4,84,68,47,29.98,29.86,7,1,10,0.00
2013-6-23,88.0,77.0,67.1,71.7,67.1,64.3,94,73,49,29.93,29.84,8,0,11,0.00
2013-6-24,86.8,76.6,65.1,68.8,65.0,61.2,88,69,51,29.93,29.78,9,1,14,0.00
2013-6-25,87.0,73.1,64.9,73.8,67.1,62.7,95,82,61,29.84,29.67,13,2,16,0.64
2013-6-26,82.1,72.7,64.9,71.9,67.6,63.7,96,85,66,29.77,29.60,8,1,9,0.48
2013-6-27,77.3,69.5,65.7,69.1,66.2,63.9,96,90,71,29.61,29.45,5,0,11,0.48
2013-6-28,78.6,68.9,61.7,68.3,63.7,57.8,97,84,64,29.45,29.31,6,0,11,0.00
2013-6-29,77.6,67.4,59.0,65.7,61.8,57.8,96,83,59,29.50,29.35,0,0,4,0.01
2013-6-30,78.5,68.5,59.3,69.8,63.7,58.2,97,85,65,29.68,29.50,1,0,6,0.01
2013-7-1,73.8,67.5,62.7,67.8,63.9,61.4,96,89,74,29.78,29.64,5,0,12,0.06
2013-7-2,83.3,72.0,64.2,71.9,66.6,63.0,97,84,63,29.86,29.73,8,0,13,0.08
2013-7-3,84.7,74.1,67.1,73.2,68.3,65.2,95,83,61,29.96,29.85,0,0,0,0.32
2013-7-4,79.3,72.4,66.9,71.4,68.1,65.4,96,87,71,30.00,29.93,0,0,0,0.00
2013-7-5,70.5,68.6,67.8,68.1,67.0,66.3,96,95,90,29.95,29.92,0,0,0,0.02
2013-7-6,84.6,71.5,67.8,74.5,68.8,66.6,97,91,66,29.97,29.83,0,0,0,0.15
2013-7-7,78.7,71.6,66.2,69.0,66.4,63.8,95,84,67,29.90,29.81,0,0,0,0.00
2013-7-8,83.0,70.2,61.1,72.0,65.1,59.1,95,85,62,29.92,29.84,0,0,0,0.32
2013-7-9,86.2,72.6,66.1,76.0,69.4,64.6,96,90,70,29.89,29.75,8,0,17,0.54
2013-7-10,85.0,71.2,64.4,78.2,69.2,63.2,97,94,77,29.79,29.60,11,1,19,2.39
2013-7-11,75.5,67.6,56.7,63.7,60.7,54.8,96,80,55,29.84,29.71,8,1,9,0.01
2013-7-12,76.3,65.6,55.6,66.3,60.2,54.2,97,84,60,29.94,29.83,9,1,11,0.00
2013-7-13,66.1,64.9,63.2,61.8,60.2,58.5,92,85,83,29.94,29.92,8,3,10,0.00
2013-7-14,87.7,78.3,67.0,74.7,70.2,64.8,93,77,59,30.08,30.02,9,2,9,0.00
2013-7-15,90.7,79.8,68.6,75.6,70.8,66.3,94,75,55,30.14,30.04,10,1,10,0.00
2013-7-16,87.9,77.4,69.1,76.6,72.8,67.8,97,86,61,30.11,30.04,7,0,11,0.00
2013-7-17,90.5,79.6,69.6,77.7,73.2,68.7,98,82,59,30.09,29.95,6,1,9,0.00
2013-7-18,90.4,79.9,70.3,78.0,73.7,69.1,97,83,62,29.98,29.82,5,1,9,0.00
2013-7-19,88.2,81.6,72.0,76.5,72.5,68.2,94,74,62,29.82,29.65,14,4,14,0.00
2013-7-20,78.9,72.3,67.3,71.7,68.8,65.3,95,89,77,29.73,29.61,10,1,11,0.11
2013-7-21,82.9,72.5,66.2,72.2,68.4,64.4,97,88,64,29.78,29.71,5,0,6,0.01
2013-7-22,75.3,68.2,64.5,71.0,65.9,62.2,96,92,85,29.77,29.57,5,0,9,1.27
2013-7-23,81.6,68.9,63.1,71.5,65.7,62.2,97,90,70,29.60,29.49,8,1,16,0.43
2013-7-24,69.2,62.2,51.9,64.6,55.9,49.9,96,81,61,29.83,29.58,7,1,16,0.00
2013-7-25,75.0,60.7,48.2,58.6,52.8,47.0,97,78,48,29.93,29.84,7,1,11,0.00
2013-7-26,79.9,65.6,50.8,62.0,56.2,49.6,97,75,46,29.92,29.80,5,0,9,0.00
2013-7-27,71.4,64.8,60.9,66.3,60.8,57.7,92,87,83,29.80,29.67,3,0,4,0.04
2013-7-30,58.7,58.4,58.1,56.5,56.3,56.1,93,93,92,29.98,29.97,0,0,2,0.00
2013-7-31,71.9,65.0,56.8,67.5,62.0,55.4,96,90,75,29.98,29.76,5,0,5,0.08
2013-8-1,79.0,69.0,58.4,66.0,63.4,56.7,97,84,53,29.76,29.67,12,3,12,0.30
2013-8-2,72.1,64.3,55.3,63.2,58.5,54.5,97,83,61,29.81,29.71,8,1,13,0.03
2013-8-3,77.2,67.4,54.8,65.5,60.2,52.5,96,80,50,29.81,29.74,8,2,12,0.31
2013-8-4,71.0,61.4,52.5,59.3,55.2,51.1,96,81,57,29.93,29.81,9,1,15,0.01
2013-8-5,72.1,61.1,49.6,60.6,54.3,48.5,97,80,52,29.95,29.84,4,0,7,0.00
2013-8-6,79.7,67.5,55.8,63.2,58.0,53.2,94,73,50,29.85,29.78,5,0,10,0.00
2013-8-7,81.2,68.8,62.1,71.6,64.4,58.2,96,86,70,29.78,29.70,9,0,13,0.31
2013-8-8,83.9,71.8,67.1,74.5,69.4,65.8,97,92,72,29.78,29.70,4,0,9,0.17
2013-8-9,77.4,68.5,56.6,69.3,65.0,54.9,97,89,64,29.83,29.69,7,1,11,0.20
2013-8-10,79.0,67.2,56.0,67.4,60.4,54.6,95,80,60,29.92,29.84,5,0,6,0.00
2013-8-11,80.2,68.4,61.1,67.3,60.7,54.8,95,77,62,29.94,29.84,10,1,11,0.00
2013-8-12,80.1,68.8,57.3,68.5,63.1,56.4,97,83,59,29.88,29.67,6,0,10,0.00
2013-8-13,73.6,66.6,48.8,67.5,60.7,46.9,96,82,62,29.80,29.59,10,2,16,0.00
2013-8-14,66.7,55.5,47.1,56.3,50.3,45.7,96,84,61,29.99,29.80,7,1,13,0.01
2013-8-15,72.2,57.9,44.7,57.4,50.5,43.6,97,79,50,30.04,29.94,5,0,9,0.00
2013-8-16,75.2,63.5,52.8,58.2,53.6,50.5,92,73,45,30.01,29.95,7,1,10,0.00
2013-8-17,76.2,64.8,53.2,60.6,55.9,51.5,96,75,50,30.06,30.00,13,2,14,0.00
2013-8-18,74.2,65.6,58.6,65.7,60.6,54.6,93,84,73,30.03,29.94,5,0,6,0.00
2013-8-19,78.5,68.2,57.5,66.2,62.4,55.8,97,83,51,29.97,29.89,5,1,8,0.00
2013-8-20,82.3,75.2,55.9,68.4,63.6,54.5,97,69,53,30.00,29.91,9,1,9,0.01
2013-8-21,84.1,70.6,57.7,69.4,63.2,56.6,97,80,51,30.01,29.87,5,0,9,0.00
2013-8-22,81.1,70.3,62.6,71.3,66.2,61.1,96,88,70,29.90,29.78,8,1,14,0.59
2013-8-23,81.6,69.7,56.5,68.3,61.8,53.5,97,78,50,29.98,29.80,7,1,10,0.03
2013-8-24,82.8,65.2,52.6,61.8,55.3,50.9,95,74,40,30.12,29.98,6,0,11,0.00
2013-8-25,81.7,67.6,53.8,63.7,58.4,51.5,95,74,51,30.17,30.04,7,1,11,0.00
2013-8-26,83.1,71.9,60.2,68.8,63.1,56.3,91,75,57,30.06,29.82,7,1,13,0.01
2013-8-27,78.5,72.4,68.8,72.0,69.0,66.4,95,89,79,29.84,29.73,9,1,14,0.11
2013-8-28,79.2,72.9,69.6,73.7,70.9,68.2,97,93,81,29.75,29.63,7,1,11,0.12
2013-8-29,84.4,73.4,67.0,71.7,68.1,65.2,97,85,58,29.86,29.75,5,1,8,0.00
2013-8-30,85.2,73.7,61.6,72.2,67.3,60.7,98,82,58,29.82,29.63,8,1,11,0.00
2013-8-31,84.9,75.6,68.1,72.2,69.1,66.6,95,81,60,29.64,29.56,9,1,12,0.00
2013-9-1,84.5,73.6,67.1,72.2,68.9,66.0,97,86,62,29.63,29.56,6,0,11,0.00
2013-9-2,82.7,70.6,59.4,71.8,66.6,58.0,97,88,61,29.66,29.56,8,1,16,0.02
2013-9-3,64.8,60.1,50.8,61.1,56.2,49.7,97,87,70,29.87,29.65,7,1,13,0.01
2013-9-4,77.3,61.9,48.9,60.4,54.9,48.1,97,80,52,29.95,29.86,9,1,13,0.00
2013-9-5,72.1,62.7,46.5,58.4,53.3,44.1,93,74,38,30.04,29.88,8,1,14,0.00
2013-9-6,76.5,57.0,42.4,53.3,45.9,41.3,97,71,33,30.10,29.95,6,1,9,0.00
2013-9-7,79.4,65.3,48.4,62.8,53.2,44.1,87,66,45,29.96,29.76,7,1,11,0.00
2013-9-8,76.2,67.2,53.2,67.4,61.5,50.6,94,82,64,29.88,29.72,7,1,15,0.00
2013-9-9,80.2,66.2,54.4,72.6,62.1,51.0,97,87,74,29.90,29.80,6,1,18,1.18
2013-9-10,90.2,78.3,69.2,77.2,72.3,67.6,97,83,62,29.91,29.83,7,1,12,0.00
2013-9-11,88.5,78.5,72.2,74.4,72.0,69.3,95,82,60,29.92,29.77,8,1,11,0.00
2013-9-12,74.3,67.5,57.4,69.5,65.5,55.9,97,93,85,29.78,29.62,10,1,13,0.58
2013-9-13,60.0,55.5,49.4,56.4,52.3,47.3,97,89,69,29.88,29.65,7,1,16,0.18
2013-9-14,66.4,53.2,43.0,51.5,45.1,40.8,95,76,49,30.00,29.87,9,1,12,0.00
2013-9-15,68.8,55.7,43.3,54.3,48.7,41.3,94,79,55,30.02,29.89,5,0,8,0.00
2013-9-16,68.6,57.9,47.2,56.7,53.0,45.8,96,85,60,30.14,29.92,7,1,12,0.07
2013-9-17,69.1,53.4,39.7,52.1,45.9,38.7,97,78,47,30.23,30.09,9,2,11,0.01
2013-9-18,74.1,59.2,46.5,59.4,51.5,42.7,90,76,54,30.09,29.92,6,1,11,0.00
2013-9-19,73.2,64.8,60.6,64.9,61.1,58.5,95,88,73,29.95,29.82,5,0,8,0.00
2013-9-20,79.5,69.0,61.6,71.7,66.0,59.9,97,91,76,29.85,29.60,7,1,11,0.01
2013-9-21,69.3,63.0,50.5,67.5,60.8,49.2,96,93,76,29.62,29.47,7,1,14,0.95
2013-9-22,57.4,52.9,49.0,52.9,48.4,44.7,97,85,64,29.87,29.62,6,1,10,0.01
2013-9-23,58.6,50.4,40.2,48.2,45.4,38.6,96,84,61,29.99,29.86,6,0,10,0.00
2013-9-24,68.0,50.8,38.0,50.4,43.8,37.0,96,80,49,29.98,29.81,10,1,13,0.00
2013-9-25,74.2,55.9,41.9,54.1,47.9,40.8,97,79,37,29.83,29.73,9,1,10,0.01
2013-9-26,74.4,58.3,43.9,55.8,49.3,42.8,97,76,38,29.93,29.78,4,0,10,0.00
2013-9-27,72.2,57.4,45.6,53.6,49.7,44.5,97,78,49,30.02,29.93,10,1,13,0.01
2013-9-28,73.7,61.0,52.2,58.6,53.6,50.3,95,78,54,30.07,29.95,9,2,12,0.00
2013-9-29,72.8,60.7,50.3,60.9,54.9,48.1,93,82,63,29.95,29.82,8,1,8,0.00
2013-9-30,67.9,60.8,57.1,60.2,57.5,55.4,96,89,75,29.85,29.80,6,1,11,0.00
2013-10-1,75.8,64.2,56.4,62.8,58.5,54.8,97,83,61,29.90,29.81,7,1,13,0.00
2013-10-2,79.6,66.8,57.7,66.6,61.2,56.0,95,83,58,29.91,29.84,7,1,11,0.01
2013-10-3,78.4,66.3,61.3,69.7,63.4,59.1,96,91,72,29.91,29.81,5,0,18,0.58
2013-10-4,79.0,68.7,63.2,68.4,64.6,61.8,96,88,64,29.90,29.84,8,1,12,0.00
2013-10-5,76.7,68.4,63.7,70.4,66.0,62.3,96,92,77,29.88,29.78,4,0,10,0.85
2013-10-6,81.6,71.1,65.0,69.0,64.7,61.2,97,82,56,29.78,29.52,9,1,16,0.01
2013-10-7,65.0,52.6,46.9,62.6,47.7,42.6,95,84,70,29.96,29.52,14,2,18,0.72
2013-10-8,65.1,51.5,40.2,51.6,44.4,39.2,96,80,46,30.14,29.96,11,1,13,0.00
2013-10-9,68.0,53.8,43.3,48.3,44.2,40.6,95,72,40,30.16,30.06,9,2,15,0.01
2013-10-10,70.1,53.9,41.7,51.4,43.9,38.7,90,71,40,30.07,29.93,7,1,9,0.00
2013-10-11,68.9,56.2,45.3,57.1,49.0,42.8,93,78,59,29.96,29.89,10,1,11,0.00
2013-10-12,74.0,61.6,47.9,63.6,54.3,43.6,88,77,60,29.96,29.89,8,1,11,0.00
2013-10-13,69.7,61.2,57.8,61.0,57.2,55.5,96,87,72,30.09,29.96,9,2,9,0.68
2013-10-14,66.8,57.3,49.4,56.3,50.7,43.4,95,80,58,30.15,30.05,6,1,10,0.00
2013-10-15,63.9,56.1,45.2,59.6,53.3,42.6,95,90,79,30.06,29.79,4,0,8,0.00
2013-10-16,62.9,59.1,51.2,60.8,56.9,49.0,96,93,83,29.79,29.65,10,1,13,0.37
2013-10-17,58.7,49.1,40.5,51.1,46.3,39.4,96,91,69,29.74,29.58,12,1,13,0.38
2013-10-18,60.0,49.6,41.0,47.3,42.9,39.5,95,79,50,29.84,29.72,11,2,17,0.00
2013-10-19,53.5,45.6,39.4,46.7,41.6,37.5,93,86,75,29.79,29.55,14,1,16,0.13
2013-10-20,57.4,46.7,35.6,42.9,39.0,33.8,94,76,57,29.86,29.76,11,2,16,0.01
2013-10-21,63.7,52.0,41.3,46.5,39.8,36.5,85,65,41,29.86,29.68,11,1,14,0.00
2013-10-22,50.6,41.9,33.1,46.7,35.1,29.9,94,78,50,29.80,29.67,9,2,15,0.20
2013-10-23,42.3,37.0,30.4,38.2,33.0,28.6,94,86,70,29.78,29.61,9,1,13,0.03
2013-10-24,42.7,35.4,30.4,33.2,30.5,28.1,93,83,61,30.00,29.77,14,2,19,0.01
2013-10-25,46.3,37.2,31.4,34.7,31.0,28.7,94,80,55,30.18,30.00,10,2,16,0.03
2013-10-26,45.0,38.6,31.2,36.0,28.9,25.8,83,69,50,30.08,29.72,13,2,19,0.00
2013-10-27,49.0,38.9,30.3,36.8,32.5,28.8,95,79,54,29.94,29.83,8,1,13,0.00
2013-10-28,57.8,43.1,30.8,40.7,33.7,28.8,93,73,40,30.16,29.94,6,0,7,0.00
2013-10-29,57.4,42.9,31.7,42.3,36.7,30.4,96,80,53,30.24,30.09,6,0,9,0.00
2013-10-30,64.9,52.9,40.1,53.1,44.6,36.5,92,74,55,30.09,29.90,5,0,8,0.00
2013-10-31,65.1,59.7,55.4,58.4,56.1,53.1,95,88,70,29.90,29.19,15,3,22,0.41
2013-11-1,64.2,56.8,50.8,57.7,52.6,44.7,92,86,75,29.42,29.12,15,5,26,0.18
2013-11-2,48.7,44.5,41.1,43.4,41.4,39.3,94,89,76,29.83,29.58,11,3,16,0.12
2013-11-3,47.0,37.6,29.5,39.5,32.8,24.6,96,83,57,30.31,29.83,7,1,10,0.07
2013-11-4,42.4,34.8,27.4,27.3,24.6,21.8,84,67,46,30.39,30.27,12,4,16,0.00
2013-11-5,59.0,47.0,38.9,40.4,34.5,26.9,71,62,47,30.32,30.13,6,1,9,0.00
2013-11-6,68.2,54.8,41.1,56.0,46.0,32.5,95,73,55,30.13,29.71,11,2,19,0.38
2013-11-7,57.4,41.6,37.4,55.9,36.6,27.4,95,83,64,29.95,29.71,17,4,20,0.43
2013-11-8,40.2,34.1,26.7,32.0,28.2,23.6,92,79,61,30.14,29.92,10,2,19,0.00
2013-11-9,56.3,43.1,28.8,36.0,29.9,24.8,85,62,37,30.12,29.78,15,3,22,0.00
2013-11-10,49.8,41.7,32.1,39.1,33.5,27.8,84,73,59,30.12,29.79,19,6,23,0.00
2013-11-11,46.1,37.0,27.8,36.3,30.2,25.7,93,78,52,30.11,29.88,12,1,15,0.07
2013-11-12,33.7,28.7,25.2,28.7,24.9,22.0,94,86,68,30.34,30.00,10,2,13,0.08
2013-11-13,34.9,28.5,23.4,24.3,21.6,18.3,93,76,62,30.40,30.18,9,2,14,0.00
2013-11-14,47.5,35.8,27.0,24.4,21.5,18.8,74,57,38,30.18,29.99,11,2,14,0.01
2013-11-15,52.6,44.0,36.6,32.6,25.4,20.5,66,49,32,30.02,29.94,9,1,15,0.00
2013-11-16,57.6,48.6,37.9,49.3,42.6,32.3,90,80,66,30.05,29.81,10,2,12,0.00
2013-11-17,59.2,55.7,50.1,56.7,52.6,45.1,94,89,69,29.81,29.29,16,5,35,0.82
2013-11-18,50.5,44.5,34.8,42.5,36.2,26.0,86,73,58,29.92,29.42,29,12,29,0.00
2013-11-19,37.5,31.9,23.2,27.8,24.6,20.4,90,74,60,30.27,29.92,9,2,16,0.00
2013-11-20,45.3,34.5,27.2,24.0,20.7,16.2,86,60,32,30.32,30.19,13,5,20,0.00
2013-11-21,48.2,38.7,32.4,39.9,30.4,18.3,88,73,51,30.26,30.05,6,2,10,0.11
2013-11-22,49.7,46.1,33.3,48.6,44.3,30.0,96,93,73,30.12,29.92,18,5,18,0.09
2013-11-23,33.7,26.5,16.2,30.0,22.6,12.7,91,86,60,30.23,30.02,16,4,20,0.00
2013-11-24,23.4,16.3,9.9,14.0,10.5,5.3,90,78,54,30.40,30.23,12,3,19,0.00
2013-11-25,32.6,22.9,10.8,26.4,13.1,7.0,91,68,48,30.36,30.07,10,2,12,0.00
2013-11-26,32.2,30.1,28.5,29.9,28.2,26.3,95,93,91,30.08,29.66,3,0,6,0.00
2013-11-27,29.6,25.3,19.1,28.2,22.1,14.3,95,87,72,29.99,29.62,0,0,0,0.00
2013-11-28,27.4,20.3,7.0,20.3,15.3,4.4,91,81,63,30.30,29.99,0,0,0,0.00
2013-11-29,35.3,22.9,12.4,24.2,17.8,10.3,94,81,55,30.51,30.30,0,0,0,0.11
2013-11-30,38.6,28.4,19.6,26.9,22.0,15.8,87,77,62,30.47,30.06,6,1,9,0.06
2013-12-1,40.4,35.8,31.1,30.1,28.4,25.3,81,74,65,30.06,29.82,5,1,9,0.15
2013-12-2,41.4,35.3,30.7,35.1,31.1,28.9,94,84,76,29.82,29.70,5,0,6,0.00
2013-12-3,50.6,38.7,30.7,41.7,35.1,29.2,94,87,71,29.77,29.72,5,1,8,0.00
2013-12-4,55.3,47.3,37.1,48.5,42.5,34.7,93,84,76,29.82,29.66,8,2,11,0.00
2013-12-5,59.6,51.8,33.1,57.1,47.7,30.8,94,86,75,29.91,29.63,9,3,13,0.22
2013-12-6,33.1,29.5,25.4,30.9,27.6,23.7,94,93,90,30.16,29.86,6,1,9,0.09
2013-12-7,25.4,20.7,9.8,23.7,16.3,7.5,93,83,66,30.46,30.15,7,1,10,0.00
2013-12-8,27.7,20.8,10.7,26.2,16.7,8.2,94,84,72,30.46,29.92,15,5,18,0.00
2013-12-9,34.7,30.9,25.3,33.4,27.6,20.0,95,88,78,30.00,29.81,14,4,19,0.06
2013-12-10,25.8,21.5,17.6,19.7,14.4,7.6,91,75,48,30.13,29.89,12,4,18,0.00
2013-12-11,25.7,19.0,14.7,19.3,13.3,9.5,90,79,66,30.25,30.11,11,3,20,0.00
2013-12-12,18.4,13.3,4.3,13.3,4.0,0.0,86,67,46,30.33,30.12,16,4,19,0.00
2013-12-13,30.6,22.1,14.8,19.3,12.7,4.5,78,67,57,30.13,30.07,11,2,14,0.00
2013-12-14,35.1,29.7,25.7,33.9,26.8,18.9,96,89,73,30.10,29.50,11,3,15,0.00
2013-12-15,35.1,23.7,14.8,33.7,20.6,9.7,95,88,79,29.90,29.50,18,6,23,0.01
2013-12-16,21.5,17.1,10.9,18.9,11.0,7.5,91,77,64,30.05,29.89,9,2,13,0.00
2013-12-17,28.5,25.1,21.1,26.9,22.0,18.7,94,88,74,29.91,29.79,11,3,15,0.00
2013-12-18,27.7,24.1,20.8,21.8,19.5,16.1,90,82,72,30.05,29.90,10,3,15,0.00
2013-12-19,44.9,38.0,27.2,34.0,26.7,18.1,75,64,54,29.94,29.83,11,2,19,0.24
2013-12-20,53.1,46.6,42.9,50.8,39.4,28.8,94,77,55,29.83,29.68,14,5,14,0.08
2013-12-21,61.1,55.9,52.3,59.7,54.4,50.5,95,95,92,29.69,29.35,11,3,16,1.25
2013-12-22,65.8,55.7,44.9,59.5,50.7,40.7,96,84,67,29.77,29.28,20,5,28,0.50
2013-12-23,44.9,33.5,27.2,41.5,28.6,20.4,93,82,72,30.14,29.76,12,3,15,0.09
2013-12-24,27.2,17.2,6.1,21.6,12.4,3.6,92,81,72,30.39,30.09,11,3,17,0.00
2013-12-25,25.4,17.2,5.8,22.5,11.7,3.3,90,79,64,30.38,30.07,10,1,13,0.00
2013-12-26,32.9,27.4,20.7,25.5,21.4,15.4,90,78,64,30.19,29.98,15,3,23,0.00
2013-12-27,41.5,32.9,24.3,29.7,24.7,17.6,80,72,61,30.22,30.08,10,2,14,0.00
2013-12-28,50.8,40.7,34.3,33.6,29.5,26.4,74,65,49,30.08,29.86,12,3,17,0.00
2013-12-29,41.1,39.2,32.3,39.0,32.7,24.9,95,79,53,29.86,29.55,17,2,19,0.19
2013-12-30,32.3,21.3,17.3,29.9,18.0,13.0,92,87,74,30.06,29.71,12,2,14,0.00
2013-12-31,20.7,18.7,15.3,18.2,14.5,10.2,91,84,73,30.17,29.93,15,3,20,0.00
2014-1-1,25.6,21.3,18.2,21.2,18.1,15.2,90,87,82,30.20,29.96,7,1,8,0.00
2014-1-2,20.5,16.5,8.7,18.0,13.8,5.4,91,89,86,29.96,29.63,13,1,20,0.00